createdAt,value
2023-04-13T00:01:19.489Z,94400.50
2023-04-13T00:03:47.216Z,94402.63
2023-04-13T00:06:15.044Z,94418.50
2023-04-13T00:08:45.032Z,94419.66
2023-04-13T00:11:12.916Z,94427.69
2023-04-13T00:13:43.047Z,94440.66
2023-04-13T00:16:12.526Z,94455.81
2023-04-13T00:18:40.248Z,94458.94
2023-04-13T00:21:08.874Z,94449.28
2023-04-13T00:23:37.010Z,94455.47
2023-04-13T00:26:06.692Z,94466.03
2023-04-13T00:28:34.446Z,94473.16
2023-04-13T00:31:02.704Z,94482.84
2023-04-13T00:33:30.493Z,94476.50
2023-04-13T00:35:58.143Z,94497.59
2023-04-13T00:38:27.298Z,94508.75
2023-04-13T00:40:55.741Z,94493.97
2023-04-13T00:43:25.266Z,94485.06
2023-04-13T00:45:53.476Z,94489.16
2023-04-13T00:48:21.810Z,94497.06
2023-04-13T00:50:49.614Z,94497.91
2023-04-13T00:53:17.349Z,94494.91
2023-04-13T00:55:45.275Z,94497.06
2023-04-13T00:58:14.299Z,94491.44
2023-04-13T01:00:43.903Z,94490.94
2023-04-13T01:03:12.466Z,94485.53
2023-04-13T01:05:50.242Z,94483.16
2023-04-13T01:08:23.982Z,94480.97
2023-04-13T01:10:55.591Z,94481.25
2023-04-13T01:13:29.171Z,94491.00
2023-04-13T01:16:03.771Z,94492.38
2023-04-13T01:18:35.482Z,94487.00
2023-04-13T01:21:04.572Z,94485.13
2023-04-13T01:23:50.799Z,94478.09
2023-04-13T01:26:18.711Z,94472.72
2023-04-13T01:28:48.839Z,94473.81
2023-04-13T01:31:18.291Z,94471.69
2023-04-13T01:33:46.844Z,94475.16
2023-04-13T01:36:15.424Z,94473.88
2023-04-13T01:38:43.518Z,94488.13
2023-04-13T01:41:11.213Z,94478.41
2023-04-13T01:43:38.950Z,94478.69
2023-04-13T01:46:11.336Z,94481.66
2023-04-13T01:48:46.308Z,94476.06
2023-04-13T01:51:19.305Z,94483.09
2023-04-13T01:53:53.470Z,94485.00
2023-04-13T01:56:22.951Z,94485.28
2023-04-13T01:58:56.209Z,94489.88
2023-04-13T02:01:25.441Z,94496.31
2023-04-13T02:03:53.651Z,94491.22
2023-04-13T02:06:21.733Z,94495.59
2023-04-13T02:08:52.349Z,94499.94
2023-04-13T02:11:20.543Z,94500.97
2023-04-13T02:13:48.330Z,94501.00
2023-04-13T02:16:16.129Z,94504.53
2023-04-13T02:18:46.547Z,94504.25
2023-04-13T02:21:14.480Z,94496.72
2023-04-13T02:23:42.503Z,94501.84
2023-04-13T02:26:13.013Z,94512.59
2023-04-13T02:28:41.720Z,94513.41
2023-04-13T02:31:09.500Z,94515.28
2023-04-13T02:33:37.635Z,94527.72
2023-04-13T02:36:07.959Z,94524.16
2023-04-13T02:38:37.268Z,94523.91
2023-04-13T02:41:06.518Z,94534.19
2023-04-13T02:43:35.606Z,94528.25
2023-04-13T02:46:03.422Z,94528.53
2023-04-13T02:48:31.118Z,94524.50
2023-04-13T02:50:58.779Z,94530.69
2023-04-13T02:53:28.149Z,94530.16
2023-04-13T02:55:56.503Z,94537.94
2023-04-13T02:58:25.382Z,94532.28
2023-04-13T03:00:53.696Z,94533.38
2023-04-13T03:03:21.341Z,94526.66
2023-04-13T03:05:50.351Z,94528.56
2023-04-13T03:08:18.764Z,94521.56
2023-04-13T03:10:47.800Z,94512.41
2023-04-13T03:13:16.033Z,94506.75
2023-04-13T03:15:44.474Z,94510.53
2023-04-13T03:18:12.146Z,94507.56
2023-04-13T03:20:39.915Z,94510.00
2023-04-13T03:23:07.647Z,94509.44
2023-04-13T03:25:35.311Z,94502.47
2023-04-13T03:28:04.362Z,94494.41
2023-04-13T03:30:32.063Z,94492.81
2023-04-13T03:32:59.775Z,94494.94
2023-04-13T03:35:27.508Z,94495.78
2023-04-13T03:37:56.119Z,94490.97
2023-04-13T03:40:23.897Z,94502.00
2023-04-13T03:42:51.683Z,94510.09
2023-04-13T03:45:21.064Z,94515.78
2023-04-13T03:47:48.820Z,94524.66
2023-04-13T03:50:16.964Z,94522.22
2023-04-13T03:52:44.650Z,94516.59
2023-04-13T03:55:13.122Z,94520.63
2023-04-13T03:57:47.651Z,94520.34
2023-04-13T04:00:16.119Z,94506.38
2023-04-13T04:02:45.550Z,94502.34
2023-04-13T04:05:13.779Z,94503.97
2023-04-13T04:07:41.519Z,94499.41
2023-04-13T04:10:10.450Z,94488.91
2023-04-13T04:12:38.119Z,94498.84
2023-04-13T04:15:06.756Z,94500.22
2023-04-13T04:17:34.562Z,94497.25
2023-04-13T04:20:06.260Z,94505.31
2023-04-13T04:22:34.826Z,94516.63
2023-04-13T04:25:02.567Z,94514.50
2023-04-13T04:27:31.519Z,94519.88
2023-04-13T04:30:00.941Z,94518.00
2023-04-13T04:32:28.758Z,94516.69
2023-04-13T04:34:56.582Z,94517.50
2023-04-13T04:37:26.052Z,94518.84
2023-04-13T04:39:54.257Z,94518.84
2023-04-13T04:42:21.938Z,94507.03
2023-04-13T04:44:50.260Z,94516.41
2023-04-13T04:47:19.592Z,94519.69
2023-04-13T04:49:47.509Z,94521.03
2023-04-13T04:52:15.213Z,94519.41
2023-04-13T04:54:44.254Z,94520.22
2023-04-13T04:57:12.371Z,94514.84
2023-04-13T04:59:40.844Z,94528.00
2023-04-13T05:02:08.923Z,94526.94
2023-04-13T05:04:36.714Z,94522.91
2023-04-13T05:07:04.400Z,94530.16
2023-04-13T05:09:32.323Z,94523.97
2023-04-13T05:12:01.421Z,94523.72
2023-04-13T05:14:29.359Z,94522.09
2023-04-13T05:16:57.566Z,94517.53
2023-04-13T05:19:25.607Z,94518.59
2023-04-13T05:21:53.465Z,94519.69
2023-04-13T05:24:21.524Z,94518.59
2023-04-13T05:26:49.337Z,94530.97
2023-04-13T05:29:18.850Z,94518.84
2023-04-13T05:31:46.717Z,94523.66
2023-04-13T05:34:14.706Z,94525.28
2023-04-13T05:36:42.649Z,94532.25
2023-04-13T05:39:10.931Z,94537.38
2023-04-13T05:41:38.842Z,94543.81
2023-04-13T05:44:06.909Z,94554.31
2023-04-13T05:46:36.545Z,94549.47
2023-04-13T05:49:04.595Z,94555.66
2023-04-13T05:51:33.003Z,94559.63
2023-04-13T05:54:01.002Z,94567.69
2023-04-13T05:56:29.812Z,94565.00
2023-04-13T05:58:57.849Z,94570.94
2023-04-13T06:01:25.868Z,94574.16
2023-04-13T06:03:55.998Z,94574.41
2023-04-13T06:06:24.952Z,94577.91
2023-04-13T06:08:53.825Z,94578.19
2023-04-13T06:11:22.007Z,94576.28
2023-04-13T06:13:50.040Z,94587.31
2023-04-13T06:16:18.764Z,94592.97
2023-04-13T06:18:46.628Z,94588.13
2023-04-13T06:21:15.909Z,94593.19
2023-04-13T06:23:45.790Z,94590.00
2023-04-13T06:26:13.690Z,94589.69
2023-04-13T06:28:42.845Z,94589.13
2023-04-13T06:31:13.674Z,94585.38
2023-04-13T06:33:41.904Z,94582.41
2023-04-13T06:36:10.506Z,94590.16
2023-04-13T06:38:39.700Z,94595.22
2023-04-13T06:41:08.046Z,94586.06
2023-04-13T06:43:35.894Z,94588.72
2023-04-13T06:46:05.279Z,94583.59
2023-04-13T06:48:33.391Z,94589.00
2023-04-13T06:51:01.268Z,94589.44
2023-04-13T06:53:29.128Z,94578.91
2023-04-13T06:55:58.427Z,94569.66
2023-04-13T06:58:27.104Z,94573.06
2023-04-13T07:00:55.016Z,94581.41
2023-04-13T07:03:23.102Z,94580.03
2023-04-13T07:05:51.155Z,94582.38
2023-04-13T07:08:19.591Z,94577.09
2023-04-13T07:10:47.956Z,94575.47
2023-04-13T07:13:19.874Z,94565.78
2023-04-13T07:15:47.843Z,94558.97
2023-04-13T07:18:15.776Z,94561.34
2023-04-13T07:20:43.586Z,94568.06
2023-04-13T07:23:11.517Z,94554.00
2023-04-13T07:25:39.354Z,94559.31
2023-04-13T07:28:07.221Z,94556.75
2023-04-13T07:30:36.852Z,94560.25
2023-04-13T07:33:04.873Z,94567.28
2023-04-13T07:35:32.730Z,94562.53
2023-04-13T07:38:04.036Z,94559.28
2023-04-13T07:40:32.196Z,94552.97
2023-04-13T07:42:59.962Z,94554.81
2023-04-13T07:45:31.020Z,94550.34
2023-04-13T07:48:00.782Z,94559.25
2023-04-13T07:50:28.689Z,94548.72
2023-04-13T07:52:56.550Z,94541.94
2023-04-13T07:55:24.414Z,94553.47
2023-04-13T07:57:52.237Z,94549.78
2023-04-13T08:00:22.985Z,94547.41
2023-04-13T08:02:51.627Z,94543.78
2023-04-13T08:05:21.257Z,94541.00
2023-04-13T08:07:49.545Z,94534.78
2023-04-13T08:10:17.680Z,94533.06
2023-04-13T08:12:46.038Z,94531.97
2023-04-13T08:15:14.340Z,94523.09
2023-04-13T08:17:42.341Z,94534.72
2023-04-13T08:20:11.023Z,94533.25
2023-04-13T08:22:40.256Z,94539.16
2023-04-13T08:25:08.563Z,94546.09
2023-04-13T08:27:36.420Z,94539.94
2023-04-13T08:30:06.233Z,94548.03
2023-04-13T08:32:34.382Z,94536.13
2023-04-13T08:35:06.832Z,94536.53
2023-04-13T08:37:34.807Z,94532.22
2023-04-13T08:40:07.466Z,94519.50
2023-04-13T08:42:36.657Z,94513.47
2023-04-13T08:45:04.995Z,94518.75
2023-04-13T08:47:32.973Z,94518.06
2023-04-13T08:50:02.841Z,94524.81
2023-04-13T08:52:31.131Z,94518.59
2023-04-13T08:55:00.945Z,94516.50
2023-04-13T08:57:31.333Z,94516.88
2023-04-13T09:00:00.329Z,94513.44
2023-04-13T09:02:33.598Z,94512.25
2023-04-13T09:05:06.165Z,94511.03
2023-04-13T09:07:36.884Z,94509.84
2023-04-13T09:10:07.983Z,94513.75
2023-04-13T09:12:37.442Z,94516.66
2023-04-13T09:15:07.229Z,94521.06
2023-04-13T09:17:35.600Z,94517.06
2023-04-13T09:20:14.776Z,94521.97
2023-04-13T09:22:43.017Z,94513.75
2023-04-13T09:25:21.508Z,94510.28
2023-04-13T09:27:52.037Z,94512.16
2023-04-13T09:30:22.135Z,94517.81
2023-04-13T09:32:50.997Z,94512.75
2023-04-13T09:35:18.960Z,94511.03
2023-04-13T09:37:48.056Z,94499.19
2023-04-13T09:40:18.874Z,94507.75
2023-04-13T09:42:57.497Z,94493.50
2023-04-13T09:45:25.534Z,94492.44
2023-04-13T09:47:56.002Z,94498.19
2023-04-13T09:50:28.366Z,94496.38
2023-04-13T09:53:04.519Z,94487.47
2023-04-13T09:55:34.046Z,94482.25
2023-04-13T09:58:11.978Z,94487.78
2023-04-13T10:00:42.618Z,94491.06
2023-04-13T10:03:12.381Z,94480.00
2023-04-13T10:05:55.337Z,94478.50
2023-04-13T10:08:36.672Z,94470.63
2023-04-13T10:11:05.457Z,94472.13
2023-04-13T10:13:39.165Z,94483.06
2023-04-13T10:16:22.916Z,94467.03
2023-04-13T10:19:00.668Z,94469.53
2023-04-13T10:21:33.334Z,94465.97
2023-04-13T10:24:01.492Z,94455.00
2023-04-13T10:26:32.761Z,94448.19
2023-04-13T10:29:02.835Z,94464.59
2023-04-13T10:31:39.242Z,94468.38
2023-04-13T10:34:07.676Z,94459.88
2023-04-13T10:36:43.162Z,94452.47
2023-04-13T10:39:11.378Z,94448.13
2023-04-13T10:41:39.442Z,94430.41
2023-04-13T10:44:10.557Z,94428.34
2023-04-13T10:46:39.054Z,94424.66
2023-04-13T10:49:07.259Z,94432.88
2023-04-13T10:51:41.450Z,94426.66
2023-04-13T10:54:10.668Z,94437.34
2023-04-13T10:56:38.779Z,94434.91
2023-04-13T10:59:08.245Z,94451.28
2023-04-13T11:01:36.482Z,94456.28
2023-04-13T11:04:07.717Z,94440.94
2023-04-13T11:06:38.937Z,94452.97
2023-04-13T11:09:08.405Z,94447.13
2023-04-13T11:11:37.446Z,94468.19
2023-04-13T11:14:05.577Z,94463.03
2023-04-13T11:16:45.119Z,94458.38
2023-04-13T11:19:13.070Z,94467.13
2023-04-13T11:21:40.974Z,94461.00
2023-04-13T11:24:10.136Z,94461.06
2023-04-13T11:26:38.941Z,94453.09
2023-04-13T11:29:18.804Z,94453.63
2023-04-13T11:31:48.111Z,94453.09
2023-04-13T11:34:25.797Z,94451.09
2023-04-13T11:37:05.564Z,94450.25
2023-04-13T11:39:46.499Z,94453.56
2023-04-13T11:42:14.581Z,94458.06
2023-04-13T11:44:45.678Z,94460.53
2023-04-13T11:47:18.912Z,94458.13
2023-04-13T11:49:48.165Z,94456.91
2023-04-13T11:52:17.393Z,94452.59
2023-04-13T11:54:45.886Z,94455.88
2023-04-13T11:57:13.938Z,94458.56
2023-04-13T11:59:42.107Z,94458.38
2023-04-13T12:02:20.849Z,94446.78
2023-04-13T12:04:51.894Z,94445.88
2023-04-13T12:07:20.976Z,94452.63
2023-04-13T12:15:10.805Z,94460.31
2023-04-13T12:17:49.783Z,94454.19
2023-04-13T12:20:20.494Z,94452.19
2023-04-13T12:22:57.794Z,94451.03
2023-04-13T12:28:04.928Z,94468.59
2023-04-13T12:30:34.434Z,94453.44
2023-04-13T12:33:02.508Z,94455.25
2023-04-13T12:35:31.760Z,94455.56
2023-04-13T12:38:00.339Z,94451.31
2023-04-13T12:40:28.237Z,94452.59
2023-04-13T12:42:56.133Z,94458.69
2023-04-13T12:45:24.005Z,94464.09
2023-04-13T12:47:51.976Z,94470.66
2023-04-13T12:50:19.867Z,94465.53
2023-04-13T12:52:50.018Z,94469.53
2023-04-13T12:55:18.333Z,94484.22
2023-04-13T12:57:46.262Z,94483.59
2023-04-13T13:00:15.954Z,94485.88
2023-04-13T13:02:44.077Z,94488.31
2023-04-13T13:05:12.164Z,94475.19
2023-04-13T13:07:40.018Z,94475.16
2023-04-13T13:10:25.986Z,94475.84
2023-04-13T13:12:57.300Z,94493.00
2023-04-13T13:15:25.418Z,94488.91
2023-04-13T13:17:53.407Z,94492.94
2023-04-13T13:20:21.463Z,94488.16
2023-04-13T13:22:49.313Z,94494.53
2023-04-13T13:25:18.697Z,94508.31
2023-04-13T13:30:18.216Z,94512.53
2023-04-13T13:32:46.118Z,94508.44
2023-04-13T13:35:15.600Z,94502.94
2023-04-13T13:37:43.429Z,94498.41
2023-04-13T13:40:13.911Z,94512.25
2023-04-13T13:45:14.148Z,94508.22
2023-04-13T13:47:41.950Z,94505.91
2023-04-13T13:50:11.145Z,94497.66
2023-04-13T13:52:45.791Z,94495.09
2023-04-13T13:55:20.612Z,94496.09
2023-04-13T13:57:49.950Z,94494.28
2023-04-13T14:00:19.758Z,94487.94
2023-04-13T14:02:48.527Z,94493.09
2023-04-13T14:05:16.573Z,94480.09
2023-04-13T14:07:45.787Z,94471.44
2023-04-13T14:10:14.209Z,94473.75
2023-04-13T14:12:45.213Z,94470.66
2023-04-13T14:15:15.078Z,94458.41
2023-04-13T14:17:43.001Z,94454.91
2023-04-13T14:20:12.012Z,94473.69
2023-04-13T14:22:40.760Z,94480.69
2023-04-13T14:25:10.609Z,94514.53
2023-04-13T14:27:47.149Z,94504.88
2023-04-13T14:30:17.588Z,94528.63
2023-04-13T14:32:46.900Z,94542.44
2023-04-13T14:35:15.436Z,94534.03
2023-04-13T14:37:43.306Z,94539.75
2023-04-13T14:40:14.514Z,94539.13
2023-04-13T14:42:42.641Z,94534.59
2023-04-13T14:45:12.501Z,94524.06
2023-04-13T14:47:41.863Z,94517.81
2023-04-13T14:50:10.898Z,94515.72
2023-04-13T14:52:39.653Z,94499.28
2023-04-13T14:55:09.004Z,94481.63
2023-04-13T14:57:36.915Z,94481.91
2023-04-13T15:00:08.476Z,94484.28
2023-04-13T15:02:38.097Z,94464.38
2023-04-13T15:05:09.761Z,94461.66
2023-04-13T15:07:38.143Z,94453.59
2023-04-13T15:10:08.508Z,94466.38
2023-04-13T15:12:36.543Z,94492.69
2023-04-13T15:15:04.916Z,94506.94
2023-04-13T15:17:32.999Z,94500.63
2023-04-13T15:20:01.113Z,94497.16
2023-04-13T15:22:31.004Z,94503.84
2023-04-13T15:24:58.905Z,94503.50
2023-04-13T15:27:27.992Z,94504.94
2023-04-13T15:29:59.743Z,94505.84
2023-04-13T15:32:27.686Z,94516.72
2023-04-13T15:34:56.388Z,94517.16
2023-04-13T15:37:24.892Z,94523.72
2023-04-13T15:39:55.331Z,94525.25
2023-04-13T15:42:23.181Z,94527.78
2023-04-13T15:44:51.061Z,94523.03
2023-04-13T15:47:18.964Z,94526.13
2023-04-13T15:49:46.805Z,94516.09
2023-04-13T15:52:14.766Z,94516.94
2023-04-13T15:54:42.653Z,94506.88
2023-04-13T15:57:12.340Z,94491.22
2023-04-13T15:59:40.368Z,94488.22
2023-04-13T16:02:08.773Z,94492.00
2023-04-13T16:04:36.753Z,94489.84
2023-04-13T16:07:12.647Z,94505.22
2023-04-13T16:09:43.792Z,94504.69
2023-04-13T16:12:13.461Z,94506.88
2023-04-13T16:14:45.101Z,94508.03
2023-04-13T16:17:15.087Z,94507.31
2023-04-13T16:19:47.107Z,94511.41
2023-04-13T16:22:16.361Z,94509.53
2023-04-13T16:24:44.238Z,94514.19
2023-04-13T16:27:13.871Z,94509.63
2023-04-13T16:29:43.465Z,94516.00
2023-04-13T16:32:11.709Z,94514.31
2023-04-13T16:34:39.682Z,94518.22
2023-04-13T16:37:07.528Z,94526.50
2023-04-13T16:39:35.560Z,94531.78
2023-04-13T16:42:03.784Z,94545.09
2023-04-13T16:44:33.301Z,94547.56
2023-04-13T16:47:01.465Z,94552.72
2023-04-13T16:49:29.379Z,94550.25
2023-04-13T16:51:57.233Z,94552.19
2023-04-13T16:54:25.187Z,94557.81
2023-04-13T16:56:53.147Z,94546.03
2023-04-13T16:59:21.310Z,94544.13
2023-04-13T17:01:50.602Z,94550.06
2023-04-13T17:04:18.645Z,94555.75
2023-04-13T17:06:47.435Z,94556.88
2023-04-13T17:09:15.264Z,94553.63
2023-04-13T17:11:43.184Z,94551.50
2023-04-13T17:14:11.161Z,94556.06
2023-04-13T17:16:39.101Z,94558.50
2023-04-13T17:19:08.488Z,94557.41
2023-04-13T17:21:36.304Z,94546.63
2023-04-13T17:24:04.546Z,94543.06
2023-04-13T17:26:32.476Z,94536.03
2023-04-13T17:29:00.741Z,94535.97
2023-04-13T17:31:28.757Z,94534.97
2023-04-13T17:33:56.443Z,94531.72
2023-04-13T17:36:27.364Z,94530.66
2023-04-13T17:38:55.019Z,94525.28
2023-04-13T17:41:22.709Z,94524.53
2023-04-13T17:43:50.401Z,94534.19
2023-04-13T17:46:18.078Z,94537.69
2023-04-13T17:48:45.756Z,94531.75
2023-04-13T17:51:13.403Z,94546.88
2023-04-13T17:53:42.460Z,94555.81
2023-04-13T17:56:15.292Z,94558.25
2023-04-13T17:58:42.986Z,94561.75
2023-04-13T18:01:11.639Z,94559.09
2023-04-13T18:03:40.013Z,94551.63
2023-04-13T18:06:08.157Z,94549.75
2023-04-13T18:08:35.917Z,94555.66
2023-04-13T18:11:05.075Z,94553.78
2023-04-13T18:13:34.297Z,94564.84
2023-04-13T18:16:02.265Z,94566.41
2023-04-13T18:18:36.873Z,94559.69
2023-04-13T18:21:04.784Z,94565.81
2023-04-13T18:23:33.269Z,94571.28
2023-04-13T18:26:02.997Z,94572.63
2023-04-13T18:28:32.028Z,94567.78
2023-04-13T18:31:01.036Z,94572.59
2023-04-13T18:33:29.601Z,94573.72
2023-04-13T18:35:57.280Z,94573.97
2023-04-13T18:38:25.287Z,94575.03
2023-04-13T18:40:53.046Z,94575.06
2023-04-13T18:43:20.926Z,94573.72
2023-04-13T18:45:50.018Z,94572.09
2023-04-13T18:48:17.886Z,94576.16
2023-04-13T18:50:45.586Z,94582.59
2023-04-13T18:53:13.298Z,94585.59
2023-04-13T18:55:41.025Z,94582.09
2023-04-13T18:58:08.798Z,94579.19
2023-04-13T19:00:39.715Z,94584.59
2023-04-13T19:03:09.046Z,94582.16
2023-04-13T19:05:37.018Z,94580.03
2023-04-13T19:08:07.252Z,94584.09
2023-04-13T19:10:35.131Z,94578.19
2023-04-13T19:13:03.201Z,94588.97
2023-04-13T19:15:31.855Z,94596.47
2023-04-13T19:18:01.175Z,94593.22
2023-04-13T19:20:30.769Z,94598.56
2023-04-13T19:22:58.567Z,94605.56
2023-04-13T19:25:26.308Z,94616.06
2023-04-13T19:27:54.160Z,94615.56
2023-04-13T19:30:22.140Z,94607.75
2023-04-13T19:32:50.961Z,94611.59
2023-04-13T19:35:21.567Z,94610.81
2023-04-13T19:37:50.966Z,94620.75
2023-04-13T19:40:19.055Z,94620.22
2023-04-13T19:42:48.288Z,94628.06
2023-04-13T19:45:16.458Z,94620.28
2023-04-13T19:47:44.528Z,94622.72
2023-04-13T19:50:13.920Z,94631.31
2023-04-13T19:52:42.451Z,94627.81
2023-04-13T19:55:12.097Z,94618.13
2023-04-13T19:57:42.329Z,94622.44
2023-04-13T20:00:19.120Z,94627.31
2023-04-13T20:02:49.715Z,94622.22
2023-04-13T20:05:18.810Z,94635.41
2023-04-13T20:07:46.855Z,94637.00
2023-04-13T20:10:15.980Z,94635.41
2023-04-13T20:12:43.678Z,94630.56
2023-04-13T20:15:11.807Z,94622.22
2023-04-13T20:17:39.557Z,94619.00
2023-04-13T20:20:10.128Z,94613.88
2023-04-13T20:22:37.902Z,94620.13
2023-04-13T20:25:06.369Z,94617.44
2023-04-13T20:27:37.754Z,94624.97
2023-04-13T20:30:06.210Z,94629.28
2023-04-13T20:32:34.204Z,94630.91
2023-04-13T20:35:02.791Z,94631.72
2023-04-13T20:37:30.440Z,94636.59
2023-04-13T20:39:58.297Z,94643.84
2023-04-13T20:42:26.034Z,94643.84
2023-04-13T20:44:57.561Z,94656.19
2023-04-13T20:47:26.442Z,94656.19
2023-04-13T20:49:57.246Z,94650.03
2023-04-13T20:52:25.999Z,94655.91
2023-04-13T20:54:54.506Z,94655.41
2023-04-13T20:57:22.494Z,94651.66
2023-04-13T20:59:51.738Z,94654.59
2023-04-13T21:02:21.217Z,94668.03
2023-04-13T21:04:49.100Z,94657.81
2023-04-13T21:07:16.799Z,94647.59
2023-04-13T21:09:44.521Z,94642.78
2023-04-13T21:12:12.220Z,94641.16
2023-04-13T21:14:39.945Z,94650.03
2023-04-13T21:17:08.104Z,94640.63
2023-04-13T21:19:37.924Z,94641.44
2023-04-13T21:22:06.069Z,94636.84
2023-04-13T21:24:33.829Z,94642.78
2023-04-13T21:27:01.566Z,94631.75
2023-04-13T21:29:29.304Z,94631.75
2023-04-13T21:31:57.118Z,94615.63
2023-04-13T21:34:27.265Z,94616.97
2023-04-13T21:36:56.538Z,94617.25
2023-04-13T21:39:24.491Z,94614.03
2023-04-13T21:41:52.217Z,94609.97
2023-04-13T21:44:29.423Z,94603.28
2023-04-13T21:46:58.371Z,94598.97
2023-04-13T21:49:26.124Z,94600.59
2023-04-13T21:51:53.779Z,94597.63
2023-04-13T21:54:22.811Z,94607.03
2023-04-13T21:56:50.619Z,94604.88
2023-04-13T21:59:26.646Z,94597.09
2023-04-13T22:01:54.583Z,94598.47
2023-04-13T22:04:22.502Z,94586.63
2023-04-13T22:06:50.474Z,94583.97
2023-04-13T22:09:18.144Z,94586.91
2023-04-13T22:11:47.226Z,94590.66
2023-04-13T22:14:14.941Z,94592.00
2023-04-13T22:16:42.606Z,94586.91
2023-04-13T22:19:10.710Z,94587.44
2023-04-13T22:21:38.698Z,94592.81
2023-04-13T22:24:06.658Z,94591.72
2023-04-13T22:26:34.417Z,94597.63
2023-04-13T22:29:03.578Z,94597.91
2023-04-13T22:31:31.327Z,94598.19
2023-04-13T22:33:59.131Z,94592.81
2023-04-13T22:36:27.069Z,94597.66
2023-04-13T22:38:54.861Z,94603.28
2023-04-13T22:41:22.537Z,94603.28
2023-04-13T22:43:50.269Z,94600.88
2023-04-13T22:46:19.452Z,94607.03
2023-04-13T22:48:48.225Z,94604.91
2023-04-13T22:51:16.296Z,94604.66
2023-04-13T22:59:10.033Z,94608.13
2023-04-13T23:01:37.744Z,94611.59
2023-04-13T23:04:06.419Z,94608.38
2023-04-13T23:06:35.926Z,94614.28
2023-04-13T23:09:03.658Z,94614.56
2023-04-13T23:11:31.395Z,94616.44
2023-04-13T23:14:00.607Z,94609.16
2023-04-13T23:16:29.779Z,94611.31
2023-04-13T23:18:57.684Z,94609.72
2023-04-13T23:21:26.410Z,94613.22
2023-04-13T23:23:54.455Z,94613.47
2023-04-13T23:26:22.302Z,94608.91
2023-04-13T23:28:50.092Z,94607.00
2023-04-13T23:31:17.852Z,94604.31
2023-04-13T23:33:46.940Z,94608.38
2023-04-13T23:36:14.869Z,94602.16
2023-04-13T23:38:42.632Z,94604.31
2023-04-13T23:41:10.311Z,94602.16
2023-04-13T23:43:37.970Z,94601.34
2023-04-13T23:46:05.791Z,94600.00
2023-04-13T23:48:33.579Z,94599.75
2023-04-13T23:51:02.764Z,94606.16
2023-04-13T23:53:30.556Z,94601.88
2023-04-13T23:55:58.744Z,94601.88
2023-04-13T23:58:26.485Z,94607.25
